createdAt,value
2023-05-01T00:00:34.118Z,48.60
2023-05-01T00:03:02.358Z,48.50
2023-05-01T00:05:30.506Z,48.60
2023-05-01T00:07:58.324Z,48.70
2023-05-01T00:10:26.148Z,48.50
2023-05-01T00:12:54.005Z,48.40
2023-05-01T00:15:21.836Z,48.50
2023-05-01T00:17:49.689Z,48.40
2023-05-01T00:20:17.865Z,48.40
2023-05-01T00:22:45.684Z,48.50
2023-05-01T00:25:13.463Z,48.40
2023-05-01T00:27:41.278Z,48.20
2023-05-01T00:30:09.446Z,48.30
2023-05-01T00:32:37.360Z,48.20
2023-05-01T00:35:05.151Z,48.20
2023-05-01T00:37:33.261Z,48.00
2023-05-01T00:40:01.797Z,48.00
2023-05-01T00:42:29.567Z,48.00
2023-05-01T00:44:57.436Z,48.00
2023-05-01T00:47:25.291Z,48.10
2023-05-01T00:49:53.213Z,48.00
2023-05-01T00:52:21.216Z,47.90
2023-05-01T00:54:52.193Z,48.00
2023-05-01T00:57:20.021Z,47.90
2023-05-01T00:59:47.991Z,47.90
2023-05-01T01:02:15.980Z,47.90
2023-05-01T01:04:43.998Z,47.90
2023-05-01T01:07:11.827Z,47.90
2023-05-01T01:09:39.678Z,47.80
2023-05-01T01:12:07.491Z,47.80
2023-05-01T01:14:35.509Z,47.90
2023-05-01T01:17:03.551Z,47.90
2023-05-01T01:19:31.403Z,48.50
2023-05-01T01:21:59.179Z,47.80
2023-05-01T01:24:27.100Z,47.70
2023-05-01T01:26:54.925Z,47.90
2023-05-01T01:29:22.663Z,47.90
2023-05-01T01:31:50.705Z,47.70
2023-05-01T01:34:18.768Z,48.00
2023-05-01T01:36:46.592Z,47.90
2023-05-01T01:39:14.398Z,47.80
2023-05-01T01:41:42.217Z,47.80
2023-05-01T01:44:10.218Z,47.90
2023-05-01T01:46:38.127Z,47.80
2023-05-01T01:49:06.184Z,47.80
2023-05-01T01:51:33.945Z,47.80
2023-05-01T01:54:01.733Z,47.90
2023-05-01T01:56:29.555Z,47.80
2023-05-01T01:58:57.346Z,47.70
2023-05-01T02:01:25.299Z,47.80
2023-05-01T02:03:53.389Z,47.90
2023-05-01T02:06:21.391Z,47.70
2023-05-01T02:08:49.237Z,47.90
2023-05-01T02:11:17.049Z,47.70
2023-05-01T02:13:45.016Z,48.00
2023-05-01T02:16:13.340Z,48.00
2023-05-01T02:18:41.375Z,47.80
2023-05-01T02:21:09.198Z,47.80
2023-05-01T02:23:37.064Z,47.90
2023-05-01T02:26:04.873Z,47.80
2023-05-01T02:28:33.272Z,47.90
2023-05-01T02:31:01.556Z,47.80
2023-05-01T02:33:29.716Z,47.70
2023-05-01T02:35:57.507Z,47.70
2023-05-01T02:38:25.323Z,47.80
2023-05-01T02:40:53.262Z,47.80
2023-05-01T02:43:21.030Z,47.70
2023-05-01T02:45:48.969Z,47.60
2023-05-01T02:48:17.256Z,47.70
2023-05-01T02:50:45.178Z,48.00
2023-05-01T02:53:13.393Z,48.00
2023-05-01T02:55:42.542Z,48.00
2023-05-01T02:58:10.305Z,48.40
2023-05-01T03:00:38.266Z,48.20
2023-05-01T03:03:06.081Z,48.40
2023-05-01T03:05:34.017Z,48.20
2023-05-01T03:08:01.920Z,48.20
2023-05-01T03:10:29.745Z,48.30
2023-05-01T03:12:57.552Z,47.90
2023-05-01T03:15:25.554Z,48.10
2023-05-01T03:17:53.411Z,47.90
2023-05-01T03:20:21.741Z,48.40
2023-05-01T03:22:49.498Z,48.20
2023-05-01T03:25:17.390Z,48.10
2023-05-01T03:27:45.183Z,48.10
2023-05-01T03:30:13.142Z,48.40
2023-05-01T03:32:41.176Z,48.30
2023-05-01T03:35:09.414Z,48.40
2023-05-01T03:37:37.304Z,48.20
2023-05-01T03:40:05.064Z,48.30
2023-05-01T03:42:32.924Z,48.40
2023-05-01T03:45:01.202Z,48.40
2023-05-01T03:47:29.085Z,48.10
2023-05-01T03:49:57.194Z,48.20
2023-05-01T03:52:25.324Z,48.40
2023-05-01T03:54:53.348Z,48.30
2023-05-01T03:57:23.303Z,48.30
2023-05-01T03:59:51.227Z,48.30
2023-05-01T04:02:19.130Z,48.40
2023-05-01T04:04:47.029Z,48.40
2023-05-01T04:07:15.001Z,48.50
2023-05-01T04:09:43.654Z,48.40
2023-05-01T04:12:11.567Z,48.40
2023-05-01T04:14:39.426Z,48.30
2023-05-01T04:17:07.262Z,48.30
2023-05-01T04:19:35.363Z,48.40
2023-05-01T04:22:03.896Z,48.40
2023-05-01T04:24:31.774Z,48.40
2023-05-01T04:26:59.726Z,48.30
2023-05-01T04:29:27.626Z,48.10
2023-05-01T04:31:55.494Z,49.00
2023-05-01T04:34:23.473Z,48.40
2023-05-01T04:36:51.971Z,48.40
2023-05-01T04:39:20.265Z,48.30
2023-05-01T04:41:48.436Z,48.40
2023-05-01T04:44:16.588Z,48.50
2023-05-01T04:46:44.604Z,48.40
2023-05-01T04:49:12.425Z,48.50
2023-05-01T04:51:40.497Z,48.60
2023-05-01T04:54:08.513Z,48.70
2023-05-01T04:56:36.403Z,48.60
2023-05-01T04:59:04.203Z,48.60
2023-05-01T05:01:32.489Z,48.60
2023-05-01T05:04:00.497Z,48.40
2023-05-01T05:06:28.550Z,48.40
2023-05-01T05:08:58.054Z,48.60
2023-05-01T05:11:26.581Z,48.50
2023-05-01T05:13:54.564Z,48.50
2023-05-01T05:16:23.023Z,48.60
2023-05-01T05:18:51.085Z,48.60
2023-05-01T05:21:18.892Z,48.50
2023-05-01T05:23:46.853Z,48.40
2023-05-01T05:26:15.249Z,48.50
2023-05-01T05:28:43.045Z,48.50
2023-05-01T05:31:11.054Z,48.50
2023-05-01T05:33:39.060Z,48.20
2023-05-01T05:36:06.941Z,48.30
2023-05-01T05:38:34.977Z,48.50
2023-05-01T05:41:02.902Z,48.40
2023-05-01T05:43:31.008Z,48.30
2023-05-01T05:45:59.293Z,48.30
2023-05-01T05:48:27.464Z,48.00
2023-05-01T05:50:56.137Z,48.20
2023-05-01T05:53:25.988Z,47.60
2023-05-01T05:55:54.146Z,47.90
2023-05-01T05:58:23.424Z,47.70
2023-05-01T06:00:53.064Z,48.10
2023-05-01T06:03:21.305Z,47.90
2023-05-01T06:05:49.562Z,48.10
2023-05-01T06:08:17.558Z,48.30
2023-05-01T06:10:45.341Z,48.10
2023-05-01T06:13:14.885Z,47.80
2023-05-01T06:15:43.291Z,48.60
2023-05-01T06:18:11.958Z,48.20
2023-05-01T06:20:40.149Z,48.20
2023-05-01T06:23:08.666Z,48.00
2023-05-01T06:25:36.756Z,48.20
2023-05-01T06:28:05.168Z,48.10
2023-05-01T06:30:33.065Z,48.20
2023-05-01T06:33:01.262Z,48.00
2023-05-01T06:35:29.345Z,48.00
2023-05-01T06:37:57.227Z,47.80
2023-05-01T06:40:25.061Z,47.90
2023-05-01T06:42:53.026Z,48.00
2023-05-01T06:45:20.954Z,47.70
2023-05-01T06:47:48.814Z,47.70
2023-05-01T06:50:16.673Z,47.50
2023-05-01T06:52:44.558Z,47.70
2023-05-01T06:55:12.651Z,47.50
2023-05-01T06:57:41.541Z,47.20
2023-05-01T07:00:10.907Z,47.20
2023-05-01T07:02:40.896Z,47.40
2023-05-01T07:05:09.045Z,47.20
2023-05-01T07:07:42.112Z,47.20
2023-05-01T07:10:12.521Z,47.90
2023-05-01T07:12:40.618Z,47.10
2023-05-01T07:15:08.398Z,47.10
2023-05-01T07:17:36.408Z,47.20
2023-05-01T07:20:05.203Z,47.20
2023-05-01T07:22:33.063Z,47.20
2023-05-01T07:25:01.291Z,47.30
2023-05-01T07:27:29.217Z,47.10
2023-05-01T07:29:57.675Z,47.00
2023-05-01T07:32:26.228Z,47.10
2023-05-01T07:34:54.816Z,46.50
2023-05-01T07:37:22.887Z,46.00
2023-05-01T07:39:50.849Z,46.60
2023-05-01T07:42:18.858Z,46.80
2023-05-01T07:44:46.939Z,46.70
2023-05-01T07:47:14.812Z,46.70
2023-05-01T07:49:42.645Z,46.10
2023-05-01T07:52:11.045Z,46.30
2023-05-01T07:54:38.944Z,46.50
2023-05-01T07:57:06.846Z,45.90
2023-05-01T07:59:34.665Z,45.40
2023-05-01T08:02:02.939Z,45.40
2023-05-01T08:04:31.171Z,46.00
2023-05-01T08:06:59.120Z,46.00
2023-05-01T08:09:26.991Z,46.10
2023-05-01T08:11:54.824Z,46.30
2023-05-01T08:14:22.702Z,46.00
2023-05-01T08:16:54.340Z,46.10
2023-05-01T08:19:22.326Z,45.90
2023-05-01T08:21:50.243Z,46.00
2023-05-01T08:24:18.313Z,46.00
2023-05-01T08:26:46.100Z,46.00
2023-05-01T08:29:14.165Z,46.00
2023-05-01T08:31:43.343Z,45.90
2023-05-01T08:34:11.402Z,45.80
2023-05-01T08:36:39.390Z,45.90
2023-05-01T08:39:07.672Z,45.90
2023-05-01T08:41:35.920Z,45.00
2023-05-01T08:44:03.798Z,44.90
2023-05-01T08:46:32.435Z,44.80
2023-05-01T08:49:00.357Z,44.00
2023-05-01T08:51:28.962Z,44.80
2023-05-01T08:53:56.874Z,45.50
2023-05-01T08:56:24.945Z,45.70
2023-05-01T08:58:52.997Z,45.70
2023-05-01T09:01:24.665Z,45.70
2023-05-01T09:03:52.986Z,45.60
2023-05-01T09:06:21.105Z,45.60
2023-05-01T09:08:48.937Z,45.50
2023-05-01T09:11:17.498Z,45.40
2023-05-01T09:13:45.336Z,45.30
2023-05-01T09:16:13.610Z,45.40
2023-05-01T09:18:42.202Z,45.50
2023-05-01T09:21:10.473Z,45.30
2023-05-01T09:23:38.532Z,45.40
2023-05-01T09:26:06.901Z,45.40
2023-05-01T09:28:34.811Z,45.30
2023-05-01T09:31:02.778Z,45.20
2023-05-01T09:33:30.788Z,45.10
2023-05-01T09:35:59.848Z,45.20
2023-05-01T09:38:27.709Z,45.40
2023-05-01T09:40:56.772Z,44.30
2023-05-01T09:43:24.894Z,44.80
2023-05-01T09:45:54.425Z,45.20
2023-05-01T09:48:22.546Z,45.20
2023-05-01T09:50:50.548Z,45.10
2023-05-01T09:53:18.469Z,45.20
2023-05-01T09:55:49.517Z,45.30
2023-05-01T09:58:17.548Z,45.20
2023-05-01T10:00:45.388Z,45.10
2023-05-01T10:03:13.355Z,45.00
2023-05-01T10:05:41.537Z,44.80
2023-05-01T10:08:11.375Z,44.80
2023-05-01T10:10:39.190Z,44.70
2023-05-01T10:13:07.148Z,45.10
2023-05-01T10:15:35.188Z,45.00
2023-05-01T10:18:03.764Z,45.10
2023-05-01T10:20:32.752Z,45.10
2023-05-01T10:23:00.607Z,45.60
2023-05-01T10:25:28.524Z,45.10
2023-05-01T10:27:57.272Z,45.20
2023-05-01T10:30:25.054Z,45.00
2023-05-01T10:32:52.991Z,45.20
2023-05-01T10:35:21.110Z,45.20
2023-05-01T10:37:48.915Z,45.20
2023-05-01T10:40:16.813Z,45.10
2023-05-01T10:42:44.586Z,44.70
2023-05-01T10:45:12.546Z,45.10
2023-05-01T10:47:41.632Z,44.50
2023-05-01T10:50:09.595Z,45.10
2023-05-01T10:52:37.478Z,45.20
2023-05-01T10:55:05.544Z,45.10
2023-05-01T10:57:33.358Z,45.30
2023-05-01T11:00:01.563Z,45.30
2023-05-01T11:02:30.636Z,45.30
2023-05-01T11:04:58.800Z,45.30
2023-05-01T11:07:28.354Z,45.40
2023-05-01T11:09:58.891Z,45.10
2023-05-01T11:12:27.031Z,44.90
2023-05-01T11:14:55.856Z,45.00
2023-05-01T11:17:24.005Z,45.20
2023-05-01T11:19:52.555Z,44.90
2023-05-01T11:22:20.487Z,45.30
2023-05-01T11:24:48.320Z,44.60
2023-05-01T11:27:16.484Z,45.20
2023-05-01T11:29:44.278Z,45.00
2023-05-01T11:32:12.227Z,44.70
2023-05-01T11:34:40.116Z,44.90
2023-05-01T11:37:07.955Z,45.40
2023-05-01T11:39:35.802Z,44.30
2023-05-01T11:42:03.719Z,45.00
2023-05-01T11:44:31.496Z,45.10
2023-05-01T11:47:01.248Z,45.40
2023-05-01T11:49:29.293Z,45.30
2023-05-01T11:51:57.099Z,44.60
2023-05-01T11:54:24.886Z,44.40
2023-05-01T11:56:53.048Z,44.40
2023-05-01T11:59:20.885Z,45.50
2023-05-01T12:01:48.780Z,44.90
2023-05-01T12:04:16.750Z,44.60
2023-05-01T12:06:45.729Z,45.20
2023-05-01T12:09:17.002Z,44.70
2023-05-01T12:11:44.867Z,44.20
2023-05-01T12:14:12.725Z,44.40
2023-05-01T12:16:42.267Z,44.60
2023-05-01T12:19:12.144Z,44.80
2023-05-01T12:21:40.240Z,44.70
2023-05-01T12:24:08.045Z,45.20
2023-05-01T12:26:35.818Z,45.60
2023-05-01T12:29:03.652Z,45.50
2023-05-01T12:31:31.589Z,45.50
2023-05-01T12:33:59.508Z,45.10
2023-05-01T12:36:27.603Z,44.90
2023-05-01T12:38:56.265Z,44.50
2023-05-01T12:41:24.098Z,45.30
2023-05-01T12:43:52.465Z,45.10
2023-05-01T12:46:20.355Z,45.30
2023-05-01T12:48:49.318Z,45.30
2023-05-01T12:51:17.676Z,45.20
2023-05-01T12:53:45.545Z,45.10
2023-05-01T12:56:13.473Z,45.30
2023-05-01T12:58:41.471Z,45.30
2023-05-01T13:01:09.327Z,45.30
2023-05-01T13:03:39.341Z,45.20
2023-05-01T13:06:09.179Z,45.30
2023-05-01T13:08:36.980Z,45.50
2023-05-01T13:11:04.785Z,45.30
2023-05-01T13:13:33.001Z,45.00
2023-05-01T13:16:00.893Z,45.00
2023-05-01T13:18:29.038Z,45.10
2023-05-01T13:20:56.961Z,45.20
2023-05-01T13:23:24.835Z,45.00
2023-05-01T13:25:52.740Z,44.90
2023-05-01T13:28:21.422Z,45.00
2023-05-01T13:30:49.280Z,44.90
2023-05-01T13:33:17.214Z,45.00
2023-05-01T13:35:45.225Z,44.90
2023-05-01T13:38:14.032Z,44.50
2023-05-01T13:40:41.892Z,44.70
2023-05-01T13:43:09.778Z,45.00
2023-05-01T13:45:37.724Z,44.90
2023-05-01T13:48:05.613Z,45.00
2023-05-01T13:50:33.438Z,44.70
2023-05-01T13:53:01.383Z,44.70
2023-05-01T13:55:29.492Z,44.30
2023-05-01T13:57:57.536Z,45.20
2023-05-01T14:00:26.007Z,44.80
2023-05-01T14:02:56.522Z,44.20
2023-05-01T14:05:24.526Z,44.00
2023-05-01T14:07:52.586Z,43.80
2023-05-01T14:10:21.106Z,43.50
2023-05-01T14:12:48.903Z,43.40
2023-05-01T14:15:17.321Z,43.10
2023-05-01T14:17:45.291Z,43.10
2023-05-01T14:20:13.450Z,43.10
2023-05-01T14:22:41.884Z,42.90
2023-05-01T14:25:09.818Z,42.80
2023-05-01T14:27:37.871Z,42.80
2023-05-01T14:30:06.070Z,42.70
2023-05-01T14:32:34.129Z,42.70
2023-05-01T14:35:03.805Z,42.80
2023-05-01T14:37:31.627Z,42.80
2023-05-01T14:39:59.438Z,42.90
2023-05-01T14:42:27.466Z,42.90
2023-05-01T14:44:55.422Z,43.00
2023-05-01T14:47:23.432Z,43.00
2023-05-01T14:49:51.809Z,43.00
2023-05-01T14:52:19.622Z,43.10
2023-05-01T14:54:48.348Z,43.10
2023-05-01T14:57:16.328Z,43.20
2023-05-01T14:59:44.172Z,43.20
2023-05-01T15:02:12.138Z,43.30
2023-05-01T15:04:40.100Z,43.30
2023-05-01T15:07:08.142Z,43.20
2023-05-01T15:09:36.390Z,43.20
2023-05-01T15:12:06.688Z,43.30
2023-05-01T15:14:35.060Z,43.40
2023-05-01T15:17:03.134Z,43.50
2023-05-01T15:19:31.083Z,43.30
2023-05-01T15:21:58.880Z,42.70
2023-05-01T15:24:26.930Z,42.30
2023-05-01T15:26:54.797Z,42.10
2023-05-01T15:29:23.050Z,41.90
2023-05-01T15:32:01.169Z,41.90
2023-05-01T15:34:36.285Z,41.80
2023-05-01T15:37:04.082Z,41.90
2023-05-01T15:39:33.251Z,41.90
2023-05-01T15:42:01.483Z,42.10
2023-05-01T15:44:29.378Z,42.10
2023-05-01T15:46:57.212Z,42.20
2023-05-01T15:49:25.247Z,42.20
2023-05-01T15:51:53.052Z,42.30
2023-05-01T15:54:22.394Z,42.30
2023-05-01T15:56:50.212Z,42.40
2023-05-01T15:59:18.071Z,42.40
2023-05-01T16:01:46.002Z,42.30
2023-05-01T16:04:13.955Z,42.40
2023-05-01T16:06:42.136Z,42.50
2023-05-01T16:09:10.803Z,42.50
2023-05-01T16:11:38.622Z,42.50
2023-05-01T16:14:06.499Z,42.50
2023-05-01T16:16:34.520Z,42.30
2023-05-01T16:19:02.337Z,42.20
2023-05-01T16:21:30.206Z,42.20
2023-05-01T16:23:58.249Z,42.20
2023-05-01T16:26:27.980Z,42.20
2023-05-01T16:28:56.303Z,42.30
2023-05-01T16:31:27.381Z,42.40
2023-05-01T16:33:56.804Z,42.40
2023-05-01T16:36:24.861Z,42.40
2023-05-01T16:38:52.589Z,42.40
2023-05-01T16:41:20.433Z,42.40
2023-05-01T16:43:48.222Z,42.60
2023-05-01T16:46:16.209Z,42.60
2023-05-01T16:48:44.101Z,42.60
2023-05-01T16:51:11.942Z,42.80
2023-05-01T16:53:39.919Z,42.80
2023-05-01T16:56:09.076Z,42.80
2023-05-01T16:58:37.368Z,42.80
2023-05-01T17:01:05.189Z,42.90
2023-05-01T17:03:33.086Z,43.00
2023-05-01T17:06:01.004Z,43.00
2023-05-01T17:08:28.838Z,43.10
2023-05-01T17:10:56.910Z,43.80
2023-05-01T17:13:24.891Z,43.20
2023-05-01T17:15:52.985Z,43.20
2023-05-01T17:18:21.179Z,43.30
2023-05-01T17:20:49.221Z,43.20
2023-05-01T17:23:17.151Z,43.00
2023-05-01T17:25:45.317Z,42.80
2023-05-01T17:28:13.154Z,42.60
2023-05-01T17:30:41.120Z,42.40
2023-05-01T17:33:08.971Z,42.20
2023-05-01T17:35:36.878Z,42.20
2023-05-01T17:38:04.681Z,42.10
2023-05-01T17:40:33.384Z,42.10
2023-05-01T17:43:02.092Z,42.20
2023-05-01T17:45:30.212Z,42.20
2023-05-01T17:47:58.207Z,42.20
2023-05-01T17:50:26.232Z,42.20
2023-05-01T17:52:54.081Z,42.20
2023-05-01T17:55:21.842Z,42.30
2023-05-01T17:57:49.927Z,42.30
2023-05-01T18:00:17.747Z,42.40
2023-05-01T18:02:46.906Z,42.40
2023-05-01T18:05:14.719Z,42.60
2023-05-01T18:07:42.590Z,42.60
2023-05-01T18:10:10.403Z,42.60
2023-05-01T18:12:38.258Z,42.70
2023-05-01T18:15:06.069Z,42.80
2023-05-01T18:17:33.938Z,42.90
2023-05-01T18:20:02.852Z,43.00
2023-05-01T18:22:30.738Z,43.00
2023-05-01T18:24:58.577Z,43.10
2023-05-01T18:27:26.539Z,43.10
2023-05-01T18:29:54.307Z,43.20
2023-05-01T18:32:24.744Z,43.40
2023-05-01T18:34:58.039Z,43.40
2023-05-01T18:37:26.036Z,43.60
2023-05-01T18:39:54.656Z,43.70
2023-05-01T18:42:22.547Z,43.80
2023-05-01T18:44:50.824Z,44.20
2023-05-01T18:47:18.696Z,44.30
2023-05-01T18:49:46.760Z,44.60
2023-05-01T18:52:14.607Z,44.70
2023-05-01T18:54:42.578Z,44.80
2023-05-01T18:57:10.609Z,45.00
2023-05-01T18:59:39.490Z,45.10
2023-05-01T19:02:07.430Z,45.10
2023-05-01T19:04:40.190Z,45.20
2023-05-01T19:07:13.572Z,45.30
2023-05-01T19:09:41.634Z,45.40
2023-05-01T19:12:09.588Z,45.50
2023-05-01T19:14:37.502Z,45.70
2023-05-01T19:17:05.451Z,45.70
2023-05-01T19:19:33.326Z,45.80
2023-05-01T19:22:01.565Z,45.80
2023-05-01T19:24:29.705Z,45.90
2023-05-01T19:26:57.600Z,45.90
2023-05-01T19:29:25.952Z,46.00
2023-05-01T19:31:54.010Z,46.00
2023-05-01T19:34:22.067Z,46.10
2023-05-01T19:36:49.952Z,46.20
2023-05-01T19:39:17.877Z,46.20
2023-05-01T19:41:46.949Z,46.30
2023-05-01T19:44:14.782Z,46.30
2023-05-01T19:46:42.862Z,46.40
2023-05-01T19:49:10.618Z,46.40
2023-05-01T19:51:38.617Z,46.50
2023-05-01T19:54:06.631Z,46.50
2023-05-01T19:56:34.747Z,46.70
2023-05-01T19:59:02.826Z,46.70
2023-05-01T20:01:31.569Z,46.70
2023-05-01T20:03:59.536Z,46.80
2023-05-01T20:06:27.933Z,46.80
2023-05-01T20:08:56.121Z,46.90
2023-05-01T20:11:24.432Z,46.90
2023-05-01T20:13:52.429Z,47.00
2023-05-01T20:16:20.607Z,47.00
2023-05-01T20:18:48.479Z,47.20
2023-05-01T20:21:16.416Z,47.00
2023-05-01T20:23:44.423Z,47.00
2023-05-01T20:26:12.256Z,47.10
2023-05-01T20:28:40.343Z,47.00
2023-05-01T20:31:08.165Z,47.00
2023-05-01T20:33:36.246Z,47.10
2023-05-01T20:36:04.114Z,47.20
2023-05-01T20:38:32.059Z,47.80
2023-05-01T20:40:59.900Z,47.20
2023-05-01T20:43:27.685Z,47.20
2023-05-01T20:45:55.634Z,47.20
2023-05-01T20:48:24.796Z,47.20
2023-05-01T20:50:52.597Z,47.20
2023-05-01T20:53:20.620Z,47.20
2023-05-01T20:55:49.907Z,47.30
2023-05-01T20:58:17.830Z,47.30
2023-05-01T21:00:45.680Z,47.30
2023-05-01T21:03:14.529Z,47.30
2023-05-01T21:05:42.466Z,47.30
2023-05-01T21:08:10.447Z,47.30
2023-05-01T21:10:38.261Z,47.40
2023-05-01T21:13:06.170Z,47.40
2023-05-01T21:15:34.295Z,47.30
2023-05-01T21:18:02.409Z,47.40
2023-05-01T21:20:30.225Z,47.40
2023-05-01T21:22:58.070Z,47.30
2023-05-01T21:25:27.179Z,47.40
2023-05-01T21:27:55.904Z,47.40
2023-05-01T21:30:23.676Z,47.40
2023-05-01T21:32:52.079Z,47.40
2023-05-01T21:35:20.727Z,47.50
2023-05-01T21:37:49.087Z,47.40
2023-05-01T21:40:16.893Z,47.50
2023-05-01T21:42:44.767Z,47.50
2023-05-01T21:45:12.651Z,47.50
2023-05-01T21:47:40.617Z,47.50
2023-05-01T21:50:08.426Z,48.20
2023-05-01T21:52:36.313Z,47.50
2023-05-01T21:55:04.630Z,47.60
2023-05-01T21:57:32.789Z,47.50
2023-05-01T22:00:01.636Z,47.50
2023-05-01T22:02:29.873Z,47.60
2023-05-01T22:04:57.887Z,47.60
2023-05-01T22:07:25.889Z,47.60
2023-05-01T22:09:53.647Z,47.60
2023-05-01T22:12:21.660Z,47.70
2023-05-01T22:14:49.641Z,47.60
2023-05-01T22:17:23.993Z,47.60
2023-05-01T22:19:52.731Z,47.60
2023-05-01T22:22:20.568Z,47.70
2023-05-01T22:24:48.393Z,47.70
2023-05-01T22:27:17.153Z,47.70
2023-05-01T22:29:44.940Z,47.70
2023-05-01T22:32:12.799Z,47.70
2023-05-01T22:34:40.713Z,47.70
2023-05-01T22:37:08.743Z,47.70
2023-05-01T22:39:36.935Z,48.40
2023-05-01T22:42:05.146Z,47.70
2023-05-01T22:44:33.306Z,47.80
2023-05-01T22:47:01.104Z,47.80
2023-05-01T22:49:28.986Z,47.90
2023-05-01T22:51:57.306Z,47.80
2023-05-01T22:54:25.117Z,47.80
2023-05-01T22:56:53.174Z,47.90
2023-05-01T22:59:21.699Z,47.90
2023-05-01T23:01:49.776Z,47.90
2023-05-01T23:04:17.816Z,47.90
2023-05-01T23:06:45.915Z,47.90
2023-05-01T23:09:14.064Z,48.00
2023-05-01T23:11:41.909Z,48.00
2023-05-01T23:14:09.704Z,48.00
2023-05-01T23:16:37.824Z,48.00
2023-05-01T23:19:06.025Z,48.00
2023-05-01T23:21:33.942Z,48.00
2023-05-01T23:24:01.720Z,48.00
2023-05-01T23:26:30.049Z,48.60
2023-05-01T23:28:57.879Z,48.00
2023-05-01T23:31:25.997Z,48.00
2023-05-01T23:33:54.089Z,48.00
2023-05-01T23:36:22.019Z,48.10
2023-05-01T23:38:49.855Z,48.00
2023-05-01T23:41:17.703Z,48.00
2023-05-01T23:43:48.040Z,48.10
2023-05-01T23:46:16.148Z,48.10
2023-05-01T23:48:44.017Z,48.20
2023-05-01T23:51:11.954Z,48.10
2023-05-01T23:53:39.825Z,48.10
2023-05-01T23:56:07.573Z,48.20
2023-05-01T23:58:35.465Z,48.20
